Disclaimer

Please do not use the information listed here in-flight or in-navigation, as they are not provided to us by the airports but are provided by volunteers, so they might be outdated.

Search


Regions


Airport information page

Radio informations:
Tower (TWR) - 124.0 MHz
TRANSIT - 131.9 MHz
Ground (GND) - 121.7 MHz
Approach (APP) - 120.0 MHz

Airport informations:
Latitude: 40° 03' 48.00" N
Longitude: 053° 00' 26.00" E
Elevation: 279 feet - 85 meters
Operating hours: 24 hour operations
Operating agency: Military-civil joint use airport
Timezone: UTC+5
Fuel: N/A

Runway information:
16/34 - 8202 x 144 feet< - >2500 x 44 meters

Recent METARs:
UTAK 211900Z 25002KT 9999 FEW033 OVC100 09/07 Q1017 R34L/CLRD70 NOSIG
UTAK 211900Z 25002KT 9999 FEW033 OVC100 09/07 Q1017 R34L/CLRD70 NOSIG
UTAK 212000Z 00000KT 9999 FEW033 OVC100 09/06 Q1017 R34L/CLRD70 NOSIG

Airport on the map: